Time;durP1;ratioP1;P1;durP2;ratioP2;P2;SDS_P1;SDS_P2;PMS_P1;PMS_P2;Temp;Humidity;BMP_temperature;BMP_pressure;BME280_temperature;BME280_humidity;BME280_pressure;Samples;Min_cycle;Max_cycle;Signal;HPM_P1;HPM_P2
2022/01/18 00:01:29;;;;;;;27.58;9.30;;;;;;;-0.75;77.92;101871.38;1743498;81;21041;-72
2022/01/18 00:03:55;;;;;;;22.45;8.05;;;;;;;-0.77;77.93;101871.02;1730638;82;21608;-72
2022/01/18 00:06:21;;;;;;;21.65;7.37;;;;;;;-0.78;77.96;101870.19;1730034;82;21077;-72
2022/01/18 00:08:47;;;;;;;24.82;6.70;;;;;;;-0.80;77.98;101868.07;1750716;81;20910;-72
2022/01/18 00:11:15;;;;;;;24.27;5.53;;;;;;;-0.77;78.00;101870.56;1734343;81;21000;-72
2022/01/18 00:13:44;;;;;;;14.87;5.15;;;;;;;-0.77;78.00;101864.47;1730771;81;21014;-72
2022/01/18 00:16:25;;;;;;;20.37;6.58;;;;;;;-0.76;78.02;101865.73;1766858;81;21521;-72
2022/01/18 00:18:39;;;;;;;;;;;;;;;-0.75;78.04;101868.75;1765427;81;21024;-72
2022/01/18 00:23:35;;;;;;;32.33;7.07;;;;;;;-0.78;78.08;101878.50;1742624;81;21680;-71
2022/01/18 00:26:03;;;;;;;18.77;4.08;;;;;;;-0.76;78.09;101879.27;1733459;81;21244;-71
2022/01/18 00:28:30;;;;;;;19.32;4.95;;;;;;;-0.77;78.10;101878.42;1744219;80;21987;-71
2022/01/18 00:31:30;;;;;;;18.20;7.22;;;;;;;-0.76;78.11;101885.37;1760123;81;20994;-71
2022/01/18 00:33:44;;;;;;;15.80;7.08;;;;;;;-0.76;78.12;101883.20;1760226;81;21647;-71
2022/01/18 00:36:08;;;;;;;18.40;6.75;;;;;;;-0.78;78.13;101885.91;1766228;81;21644;-71
2022/01/18 00:38:47;;;;;;;21.50;7.47;;;;;;;-0.81;78.15;101888.61;1737764;81;21030;-71
2022/01/18 00:41:15;;;;;;;21.05;9.08;;;;;;;-0.82;78.17;101893.48;1741161;82;21566;-71
2022/01/18 00:43:41;;;;;;;19.10;5.97;;;;;;;-0.82;78.18;101897.86;1735437;81;21309;-71
2022/01/18 00:46:07;;;;;;;25.92;5.95;;;;;;;-0.84;78.18;101907.07;1755906;81;21013;-72
2022/01/18 00:48:35;;;;;;;26.35;10.35;;;;;;;-0.84;78.21;101913.62;1758334;81;21449;-71
2022/01/18 00:51:03;;;;;;;16.85;5.50;;;;;;;-0.84;78.23;101907.07;1742977;81;21389;-71
2022/01/18 00:53:32;;;;;;;18.12;5.25;;;;;;;-0.84;78.23;101908.83;1760490;81;21953;-71
2022/01/18 00:58:36;;;;;;;14.23;3.33;;;;;;;-0.85;78.25;101923.72;1730577;81;21511;-71
2022/01/18 01:01:02;;;;;;;14.70;3.62;;;;;;;-0.85;78.27;101926.34;1752342;81;21033;-71
2022/01/18 01:03:28;;;;;;;19.90;4.62;;;;;;;-0.85;78.29;101942.05;1760595;81;21021;-71
2022/01/18 01:05:54;;;;;;;16.82;4.12;;;;;;;-0.86;78.31;101944.27;1755115;81;21061;-71
2022/01/18 01:08:20;;;;;;;16.23;4.42;;;;;;;-0.88;78.34;101933.46;1746418;81;20994;-72
2022/01/18 01:10:46;;;;;;;22.30;5.80;;;;;;;-0.89;78.37;101938.29;1760435;81;21083;-72
2022/01/18 01:13:12;;;;;;;17.07;4.97;;;;;;;-0.90;78.38;101937.44;1744377;80;21073;-71
2022/01/18 01:16:04;;;;;;;22.55;6.58;;;;;;;-0.90;78.41;101923.03;1736509;80;21045;-71
2022/01/18 01:18:30;;;;;;;20.85;7.90;;;;;;;-0.93;78.42;101927.08;1728131;81;21182;-71
2022/01/18 01:45:02;;;;;;;15.72;4.92;;;;;;;-1.03;78.69;101954.08;1761961;81;21168;-71
2022/01/18 01:47:35;;;;;;;22.35;4.95;;;;;;;-1.06;78.72;101946.80;1763209;81;21003;-71
2022/01/18 01:49:55;;;;;;;24.60;4.10;;;;;;;-1.07;78.76;101954.24;1763250;81;21007;-71
2022/01/18 01:52:22;;;;;;;13.20;3.67;;;;;;;-1.10;78.78;101950.44;1763146;81;20939;-71
2022/01/18 01:54:48;;;;;;;18.10;3.45;;;;;;;-1.13;78.81;101944.88;1763256;81;21023;-71
2022/01/18 01:57:14;;;;;;;20.92;5.92;;;;;;;-1.13;78.83;101950.56;1763231;81;21174;-70
2022/01/18 01:59:40;;;;;;;16.15;4.17;;;;;;;-1.14;78.86;101954.08;1763186;81;21677;-70
2022/01/18 02:02:06;;;;;;;23.25;6.78;;;;;;;-1.17;78.91;101948.96;1763110;81;20996;-70
2022/01/18 02:04:32;;;;;;;25.85;7.47;;;;;;;-1.15;78.95;101941.89;1763258;81;20996;-70
2022/01/18 02:06:58;;;;;;;19.45;7.62;;;;;;;-1.14;78.98;101947.08;1762937;81;20992;-70
2022/01/18 02:09:24;;;;;;;22.10;6.33;;;;;;;-1.14;79.04;101946.22;1763301;81;21082;-70
2022/01/18 02:11:51;;;;;;;25.30;4.83;;;;;;;-1.16;79.06;101950.67;1762986;81;21530;-70
2022/01/18 02:14:21;;;;;;;22.80;7.95;;;;;;;-1.17;79.12;101943.73;1763310;81;21350;-71
2022/01/18 02:22:00;;;;;;;23.30;4.78;;;;;;;-1.24;79.23;101947.03;1763086;81;21756;-71
2022/01/18 02:24:26;;;;;;;19.60;4.67;;;;;;;-1.25;79.28;101937.91;1763073;81;21003;-71
2022/01/18 02:26:52;;;;;;;14.95;4.53;;;;;;;-1.27;79.30;101944.98;1763122;81;21023;-71
2022/01/18 02:29:18;;;;;;;15.88;4.15;;;;;;;-1.30;79.35;101947.72;1762757;80;20888;-71
2022/01/18 02:31:44;;;;;;;21.82;4.90;;;;;;;-1.32;79.41;101950.83;1762856;81;20892;-71
2022/01/18 02:34:18;;;;;;;29.67;6.62;;;;;;;-1.32;79.44;101952.13;1757836;80;21103;-71
2022/01/18 02:36:44;;;;;;;22.87;6.03;;;;;;;-1.32;79.47;101959.98;1763239;81;21016;-71
2022/01/18 02:39:10;;;;;;;18.77;4.55;;;;;;;-1.35;79.50;101970.56;1763003;81;21023;-70
2022/01/18 02:41:37;;;;;;;21.82;7.80;;;;;;;-1.36;79.57;101967.55;1763130;81;21102;-70
2022/01/18 02:44:10;;;;;;;22.85;5.45;;;;;;;-1.36;79.60;101964.92;1762209;80;21006;-70
2022/01/18 02:46:38;;;;;;;21.45;6.60;;;;;;;-1.39;79.64;101963.73;1761160;81;21086;-71
2022/01/18 02:49:04;;;;;;;21.90;7.25;;;;;;;-1.41;79.71;101953.34;1761414;81;21084;-70
2022/01/18 02:51:30;;;;;;;26.30;7.87;;;;;;;-1.44;79.75;101937.73;1761543;81;21514;-70
2022/01/18 02:54:08;;;;;;;20.60;6.40;;;;;;;-1.46;79.80;101942.17;1761644;81;21447;-70
2022/01/18 02:56:42;;;;;;;22.73;7.53;;;;;;;-1.47;79.83;101947.45;1759599;81;21340;-70
2022/01/18 03:04:19;;;;;;;14.83;4.67;;;;;;;-1.50;79.96;101964.12;1761179;81;21510;-70
2022/01/18 03:06:45;;;;;;;23.27;5.65;;;;;;;-1.53;80.02;101955.94;1761593;81;20990;-70
2022/01/18 03:09:11;;;;;;;22.75;5.40;;;;;;;-1.54;80.06;101962.52;1761510;81;21013;-70
2022/01/18 03:11:37;;;;;;;27.95;5.87;;;;;;;-1.55;80.14;101964.27;1761497;81;21171;-70
2022/01/18 03:14:02;;;;;;;22.17;5.00;;;;;;;-1.56;80.19;101962.59;1761230;81;26844;-70
2022/01/18 03:16:28;;;;;;;16.73;4.85;;;;;;;-1.57;80.22;101971.34;1737785;81;21082;-70
2022/01/18 03:18:55;;;;;;;14.80;3.95;;;;;;;-1.58;80.29;101969.62;1761203;81;21484;-70
2022/01/18 03:21:21;;;;;;;16.90;6.22;;;;;;;-1.60;80.33;101958.82;1761408;81;21013;-70
2022/01/18 03:23:52;;;;;;;21.68;7.78;;;;;;;-1.62;80.37;101970.63;1761642;81;21660;-70
2022/01/18 03:26:16;;;;;;;23.57;8.28;;;;;;;-1.62;80.44;101977.65;1760615;81;21034;-70
2022/01/18 03:28:42;;;;;;;27.22;12.60;;;;;;;-1.65;80.52;101981.20;1761219;81;21634;-70
2022/01/18 03:31:08;;;;;;;24.32;7.15;;;;;;;-1.66;80.56;101986.05;1761292;81;21458;-70
2022/01/18 03:33:34;;;;;;;29.12;8.15;;;;;;;-1.66;80.61;101999.13;1761453;81;22286;-70
2022/01/18 03:36:01;;;;;;;25.68;6.85;;;;;;;-1.68;80.66;101994.39;1761438;81;21259;-70
2022/01/18 03:38:30;;;;;;;20.48;5.80;;;;;;;-1.69;80.71;102001.83;1761143;81;20982;-70
2022/01/18 03:41:01;;;;;;;27.77;8.28;;;;;;;-1.70;80.75;102002.75;1761650;81;21033;-70
2022/01/18 03:43:29;;;;;;;26.20;5.85;;;;;;;-1.70;80.80;102005.81;1760876;80;21084;-70
2022/01/18 03:46:00;;;;;;;29.23;6.55;;;;;;;-1.72;80.86;101999.77;1761503;81;21006;-70
2022/01/18 03:48:28;;;;;;;23.85;5.37;;;;;;;-1.75;80.91;101996.81;1760809;81;22100;-70
2022/01/18 03:50:51;;;;;;;29.12;5.85;;;;;;;-1.74;80.95;102001.14;1760815;81;21021;-70
2022/01/18 03:53:19;;;;;;;21.23;4.90;;;;;;;-1.73;81.00;102011.16;1761471;81;21512;-70
2022/01/18 03:55:45;;;;;;;23.25;5.35;;;;;;;-1.75;81.06;102019.05;1761456;81;20985;-70
2022/01/18 03:58:11;;;;;;;23.18;7.40;;;;;;;-1.73;81.12;102025.54;1761524;81;21097;-70
2022/01/18 04:00:37;;;;;;;26.42;6.80;;;;;;;-1.76;81.15;102030.39;1761438;81;21035;-70
2022/01/18 04:03:04;;;;;;;25.80;5.42;;;;;;;-1.80;81.21;102035.35;1761537;81;21049;-70
2022/01/18 04:05:30;;;;;;;24.10;7.83;;;;;;;-1.83;81.25;102025.45;1761603;81;20982;-70
2022/01/18 04:07:56;;;;;;;26.80;10.53;;;;;;;-1.85;81.29;102035.95;1761434;81;21533;-70
2022/01/18 04:10:22;;;;;;;29.52;12.25;;;;;;;-1.87;81.30;102037.77;1761451;81;21537;-70
2022/01/18 04:12:48;;;;;;;31.45;12.85;;;;;;;-1.89;81.37;102043.48;1761415;81;21683;-70
2022/01/18 04:15:16;;;;;;;29.98;12.65;;;;;;;-1.91;81.43;102057.07;1761368;81;20976;-70
2022/01/18 04:17:52;;;;;;;28.55;14.28;;;;;;;-1.93;81.48;102048.41;1761474;81;21105;-70
2022/01/18 04:26:02;;;;;;;37.20;12.40;;;;;;;-1.98;81.62;102034.66;1761638;81;21221;-71
2022/01/18 04:30:51;;;;;;;23.80;6.72;;;;;;;-2.01;81.71;102038.67;1761419;81;21537;-70
2022/01/18 04:33:17;;;;;;;31.35;6.75;;;;;;;-2.03;81.75;102036.55;1761531;81;21583;-70
2022/01/18 04:35:43;;;;;;;26.25;6.97;;;;;;;-2.04;81.79;102036.13;1761255;80;21538;-71
2022/01/18 04:38:09;;;;;;;32.28;9.40;;;;;;;-2.05;81.84;102035.75;1761252;81;21986;-70
2022/01/18 04:40:39;;;;;;;21.93;7.35;;;;;;;-2.07;81.89;102042.77;1761361;81;26686;-70
2022/01/18 04:43:11;;;;;;;25.65;6.67;;;;;;;-2.08;81.92;102047.62;1760875;81;21486;-70
2022/01/18 04:48:30;;;;;;;23.65;7.15;;;;;;;-2.10;81.99;102071.63;1761164;80;20981;-70
2022/01/18 04:51:08;;;;;;;39.38;12.23;;;;;;;-2.11;82.07;102068.14;1761627;81;21174;-71
2022/01/18 04:53:41;;;;;;;30.97;13.10;;;;;;;-2.11;82.10;102067.31;1760935;81;20986;-71
2022/01/18 04:56:13;;;;;;;41.53;14.53;;;;;;;-2.11;82.15;102071.24;1761511;81;20998;-71
2022/01/18 04:58:36;;;;;;;26.40;10.75;;;;;;;-2.12;82.19;102071.69;1761165;81;20994;-70
2022/01/18 05:01:05;;;;;;;35.33;18.15;;;;;;;-2.12;82.23;102069.52;1761399;81;21025;-71
2022/01/18 05:03:31;;;;;;;30.33;15.00;;;;;;;-2.13;82.29;102074.33;1761846;81;21239;-71
2022/01/18 05:06:01;;;;;;;28.75;14.40;;;;;;;-2.14;82.32;102088.30;1761453;81;20986;-71
2022/01/18 05:08:27;;;;;;;32.73;13.22;;;;;;;-2.15;82.36;102086.61;1761702;81;21037;-71
2022/01/18 05:10:56;;;;;;;30.92;7.65;;;;;;;-2.16;82.41;102088.80;1761556;81;21450;-70
2022/01/18 05:15:58;;;;;;;27.60;7.83;;;;;;;-2.16;82.49;102090.11;1761570;81;21229;-71
2022/01/18 05:23:27;;;;;;;29.60;8.53;;;;;;;-2.11;82.61;102096.06;1761355;81;21477;-70
2022/01/18 05:25:53;;;;;;;25.27;7.65;;;;;;;-2.11;82.66;102101.30;1761242;81;21761;-70
2022/01/18 05:28:19;;;;;;;37.67;10.20;;;;;;;-2.08;82.71;102099.88;1760765;81;21167;-70
2022/01/18 05:30:45;;;;;;;48.02;17.10;;;;;;;-2.06;82.76;102105.91;1761111;81;26595;-70
2022/01/18 05:33:11;;;;;;;60.17;21.35;;;;;;;-2.04;82.80;102108.00;1761763;81;25862;-70
2022/01/18 05:35:37;;;;;;;44.67;20.45;;;;;;;-2.02;82.86;102112.75;1761712;81;21014;-71
2022/01/18 05:38:05;;;;;;;49.95;23.85;;;;;;;-2.00;82.89;102107.02;1738131;81;21132;-71
2022/01/18 05:40:31;;;;;;;42.95;19.07;;;;;;;-1.99;82.94;102112.66;1761624;81;21270;-71
2022/01/18 05:42:57;;;;;;;43.28;18.00;;;;;;;-2.00;82.98;102113.55;1761185;81;21025;-71
2022/01/18 05:45:23;;;;;;;40.75;18.50;;;;;;;-1.98;83.03;102116.98;1761305;80;25760;-71
2022/01/18 05:47:49;;;;;;;47.23;14.20;;;;;;;-1.98;83.08;102118.30;1761592;81;21025;-71
2022/01/18 05:50:15;;;;;;;35.05;13.18;;;;;;;-1.98;83.14;102119.59;1761881;81;20910;-70
2022/01/18 05:52:41;;;;;;;42.83;12.30;;;;;;;-1.95;83.16;102130.40;1761480;81;21122;-71
2022/01/18 05:55:09;;;;;;;36.38;10.38;;;;;;;-1.95;83.20;102136.48;1761580;81;21009;-71
2022/01/18 05:57:35;;;;;;;30.40;10.25;;;;;;;-1.94;83.25;102130.37;1761420;81;21057;-70
2022/01/18 06:00:04;;;;;;;39.40;10.78;;;;;;;-1.91;83.32;102130.72;1761545;81;20870;-70
2022/01/18 06:07:44;;;;;;;43.98;12.20;;;;;;;-1.84;83.45;102140.94;1761450;81;21081;-70
2022/01/18 06:10:10;;;;;;;42.35;12.60;;;;;;;-1.80;83.50;102146.47;1761575;81;25856;-70
2022/01/18 06:12:36;;;;;;;38.78;12.90;;;;;;;-1.77;83.54;102152.91;1761412;81;20970;-70
2022/01/18 06:15:03;;;;;;;37.98;13.40;;;;;;;-1.76;83.60;102157.69;1761559;81;21037;-70
2022/01/18 06:17:29;;;;;;;41.23;14.18;;;;;;;-1.74;83.63;102150.20;1761507;81;21129;-70
2022/01/18 06:19:55;;;;;;;28.45;9.73;;;;;;;-1.70;83.66;102159.66;1761398;81;20970;-70
2022/01/18 06:22:21;;;;;;;38.55;14.58;;;;;;;-1.69;83.74;102156.59;1761165;81;25925;-70
2022/01/18 06:24:47;;;;;;;35.13;11.68;;;;;;;-1.67;83.77;102161.31;1761589;81;21045;-70
2022/01/18 06:27:13;;;;;;;43.87;18.20;;;;;;;-1.65;83.83;102169.50;1761449;81;20883;-70
2022/01/18 06:29:39;;;;;;;29.52;10.70;;;;;;;-1.62;83.86;102176.41;1761384;81;21175;-70
2022/01/18 06:32:06;;;;;;;35.28;11.35;;;;;;;-1.59;83.90;102182.85;1761465;81;21479;-72
2022/01/18 06:34:32;;;;;;;38.55;11.08;;;;;;;-1.59;83.95;102170.63;1757551;81;21498;-70
2022/01/18 06:36:58;;;;;;;34.98;9.90;;;;;;;-1.58;83.98;102186.70;1761413;81;21021;-73
2022/01/18 06:39:24;;;;;;;36.10;10.78;;;;;;;-1.56;84.03;102179.69;1761654;81;21041;-70
2022/01/18 06:41:50;;;;;;;51.23;13.18;;;;;;;-1.56;84.07;102183.61;1761448;81;21129;-70
2022/01/18 06:44:16;;;;;;;35.68;10.58;;;;;;;-1.52;84.11;102183.92;1761316;80;21037;-70
2022/01/18 06:46:42;;;;;;;34.73;10.90;;;;;;;-1.52;84.15;102194.38;1759316;81;20913;-71
2022/01/18 06:49:08;;;;;;;38.40;11.35;;;;;;;-1.49;84.19;102196.48;1742982;81;20998;-70
2022/01/18 06:51:34;;;;;;;29.82;10.55;;;;;;;-1.46;84.25;102204.23;1748366;81;21197;-70
2022/01/18 06:54:00;;;;;;;42.25;13.03;;;;;;;-1.45;84.27;102200.72;1752099;81;21129;-70
2022/01/18 06:56:26;;;;;;;25.32;9.93;;;;;;;-1.41;84.30;102212.80;1761265;81;20983;-70
2022/01/18 06:58:53;;;;;;;40.83;12.13;;;;;;;-1.38;84.33;102211.39;1761426;81;20982;-70
2022/01/18 07:01:19;;;;;;;40.40;17.30;;;;;;;-1.38;84.38;102206.16;1746005;81;21001;-70
2022/01/18 07:03:47;;;;;;;37.35;12.30;;;;;;;-1.36;84.42;102209.56;1732107;81;20886;-70
2022/01/18 07:06:13;;;;;;;37.13;11.40;;;;;;;-1.35;84.45;102212.59;1731174;82;21093;-71
2022/01/18 07:08:39;;;;;;;52.25;15.98;;;;;;;-1.31;84.48;102220.75;1731141;82;21049;-71
2022/01/18 07:11:07;;;;;;;47.38;15.48;;;;;;;-1.31;84.54;102212.91;1743095;81;20999;-71
2022/01/18 07:13:33;;;;;;;38.92;12.90;;;;;;;-1.31;84.57;102218.14;1761241;81;21979;-71
2022/01/18 07:15:59;;;;;;;31.40;10.82;;;;;;;-1.29;84.59;102228.95;1761537;81;21009;-71
2022/01/18 07:18:25;;;;;;;33.90;10.15;;;;;;;-1.25;84.64;102229.70;1761495;81;21122;-71
2022/01/18 07:20:51;;;;;;;27.62;10.72;;;;;;;-1.24;84.67;102217.03;1753015;81;21045;-71
2022/01/18 07:23:18;;;;;;;49.95;12.98;;;;;;;-1.23;84.71;102217.44;1730536;81;21057;-70
2022/01/18 07:25:46;;;;;;;35.75;11.60;;;;;;;-1.20;84.75;102234.34;1748693;81;21247;-71
2022/01/18 07:28:16;;;;;;;31.87;9.83;;;;;;;-1.18;84.77;102225.98;1741715;81;21072;-71
2022/01/18 07:30:42;;;;;;;32.58;9.03;;;;;;;-1.18;84.80;102235.14;1731640;81;21990;-71
2022/01/18 07:33:08;;;;;;;28.00;8.38;;;;;;;-1.16;84.85;102241.20;1731247;82;20986;-71
2022/01/18 07:35:35;;;;;;;29.55;9.55;;;;;;;-1.16;84.86;102243.34;1731420;82;21048;-71
2022/01/18 07:38:02;;;;;;;33.95;9.18;;;;;;;-1.15;84.89;102248.13;1741633;81;21033;-71
2022/01/18 07:40:29;;;;;;;37.60;10.93;;;;;;;-1.12;84.94;102249.33;1761482;81;21040;-71
2022/01/18 07:42:55;;;;;;;33.63;9.93;;;;;;;-1.10;84.96;102258.00;1761292;81;21067;-71
2022/01/18 07:45:22;;;;;;;32.00;10.05;;;;;;;-1.08;84.99;102260.11;1764625;80;20989;-71
2022/01/18 07:47:48;;;;;;;33.67;10.78;;;;;;;-1.05;85.01;102262.62;1770563;81;21087;-71
2022/01/18 07:50:15;;;;;;;34.98;11.38;;;;;;;-1.04;85.04;102266.95;1763862;81;21046;-71
2022/01/18 07:52:41;;;;;;;34.83;10.18;;;;;;;-1.02;85.06;102268.61;1764092;81;21656;-71
2022/01/18 07:55:07;;;;;;;29.37;10.25;;;;;;;-0.99;85.08;102266.37;1756272;80;21943;-71
2022/01/18 07:57:33;;;;;;;38.33;11.08;;;;;;;-0.98;85.12;102275.05;1741839;82;21053;-71
2022/01/18 08:00:00;;;;;;;33.50;11.90;;;;;;;-0.97;85.15;102275.46;1742979;81;21166;-71
2022/01/18 08:02:26;;;;;;;31.77;9.85;;;;;;;-0.96;85.16;102278.49;1755339;81;20994;-71
2022/01/18 08:04:52;;;;;;;33.15;8.68;;;;;;;-0.98;85.19;102275.91;1764008;81;21070;-71
2022/01/18 08:07:18;;;;;;;24.27;8.58;;;;;;;-0.97;85.21;102288.10;1737315;81;21146;-71
2022/01/18 08:09:44;;;;;;;32.38;10.78;;;;;;;-0.95;85.24;102295.44;1739719;81;20995;-71
2022/01/18 08:12:10;;;;;;;38.30;11.70;;;;;;;-0.95;85.25;102288.90;1741581;82;21072;-71
2022/01/18 08:14:41;;;;;;;32.85;8.30;;;;;;;-0.93;85.25;102294.95;1741199;81;21494;-71
2022/01/18 08:17:07;;;;;;;32.67;9.28;;;;;;;-0.92;85.29;102300.61;1751226;81;20999;-71
2022/01/18 08:19:35;;;;;;;39.30;8.40;;;;;;;-0.91;85.32;102297.05;1741794;82;20999;-71
2022/01/18 08:22:03;;;;;;;30.02;11.18;;;;;;;-0.88;85.33;102309.22;1767103;81;21037;-71
2022/01/18 08:24:29;;;;;;;34.92;11.45;;;;;;;-0.86;85.35;102312.18;1771420;81;21455;-71
2022/01/18 08:26:55;;;;;;;43.73;11.53;;;;;;;-0.86;85.37;102316.11;1772193;81;21731;-71
2022/01/18 08:29:21;;;;;;;41.45;14.43;;;;;;;-0.82;85.41;102322.10;1746917;81;21037;-71
2022/01/18 08:31:47;;;;;;;50.03;16.62;;;;;;;-0.84;85.42;102312.97;1752599;81;21158;-71
2022/01/18 08:34:14;;;;;;;41.25;17.95;;;;;;;-0.84;85.44;102320.83;1743684;81;21018;-72
2022/01/18 08:36:40;;;;;;;42.15;16.00;;;;;;;-0.81;85.49;102319.41;1745025;81;21199;-72
2022/01/18 08:39:07;;;;;;;39.00;10.95;;;;;;;-0.78;85.51;102316.72;1759102;81;21584;-72
2022/01/18 08:41:34;;;;;;;34.53;12.25;;;;;;;-0.79;85.51;102325.48;1752949;81;36934;-72
2022/01/18 08:44:00;;;;;;;46.98;14.90;;;;;;;-0.77;85.54;102324.95;1769472;81;21274;-72
2022/01/18 08:46:26;;;;;;;42.08;11.30;;;;;;;-0.74;85.57;102326.16;1756805;81;21123;-72
2022/01/18 08:48:52;;;;;;;44.42;12.65;;;;;;;-0.73;85.58;102333.12;1755587;81;21060;-72
2022/01/18 08:51:18;;;;;;;38.45;11.68;;;;;;;-0.72;85.58;102338.77;1766096;81;21057;-72
2022/01/18 08:53:48;;;;;;;31.15;8.98;;;;;;;-0.72;85.59;102345.77;1766332;81;21494;-72
2022/01/18 08:56:12;;;;;;;36.77;9.88;;;;;;;-0.73;85.62;102346.22;1770072;81;21328;-72
2022/01/18 08:58:39;;;;;;;38.92;11.95;;;;;;;-0.76;85.66;102343.70;1768423;81;20898;-72
2022/01/18 09:01:04;;;;;;;57.35;17.77;;;;;;;-0.74;85.65;102354.98;1740013;82;21117;-70
2022/01/18 09:03:30;;;;;;;49.53;15.00;;;;;;;-0.71;85.70;102364.07;1742215;81;20914;-70
2022/01/18 09:05:57;;;;;;;38.13;12.28;;;;;;;-0.69;85.71;102360.94;1764296;80;21537;-69
2022/01/18 09:08:23;;;;;;;50.43;15.58;;;;;;;-0.66;85.71;102355.59;1758485;79;21879;-70
2022/01/18 09:10:49;;;;;;;47.75;16.20;;;;;;;-0.67;85.73;102359.11;1761961;79;21053;-72
2022/01/18 09:13:16;;;;;;;41.23;12.93;;;;;;;-0.66;85.75;102352.97;1775958;79;21108;-72
2022/01/18 09:15:43;;;;;;;60.00;19.32;;;;;;;-0.63;85.75;102358.11;1739900;82;21022;-71
2022/01/18 09:18:09;;;;;;;61.60;25.70;;;;;;;-0.58;85.77;102358.83;1742368;81;21584;-71
2022/01/18 09:20:38;;;;;;;56.02;19.27;;;;;;;-0.51;85.81;102362.95;1748950;81;21061;-72
2022/01/18 09:23:03;;;;;;;41.83;13.55;;;;;;;-0.48;85.79;102363.75;1740851;81;21518;-71
2022/01/18 09:25:30;;;;;;;51.80;15.05;;;;;;;-0.46;85.81;102363.26;1741004;81;21003;-71
2022/01/18 09:27:56;;;;;;;45.60;14.53;;;;;;;-0.47;85.80;102365.47;1725910;82;21128;-71
2022/01/18 09:30:25;;;;;;;45.58;17.07;;;;;;;-0.40;85.82;102378.31;1751326;81;21100;-71
2022/01/18 09:32:51;;;;;;;77.20;28.52;;;;;;;-0.35;85.84;102372.93;1756897;81;21087;-71
2022/01/18 09:35:17;;;;;;;38.50;12.78;;;;;;;-0.31;85.88;102381.06;1763029;81;21006;-71
2022/01/18 09:37:43;;;;;;;36.25;12.50;;;;;;;-0.34;85.86;102382.48;1758925;81;21045;-70
2022/01/18 09:40:10;;;;;;;46.70;17.77;;;;;;;-0.31;85.89;102387.62;1761331;81;21037;-71
2022/01/18 09:42:40;;;;;;;41.65;13.55;;;;;;;-0.26;85.90;102383.09;1761292;81;20998;-71
2022/01/18 09:45:10;;;;;;;72.72;22.25;;;;;;;-0.21;85.89;102385.94;1761204;81;22060;-71
2022/01/18 09:47:37;;;;;;;53.40;17.62;;;;;;;-0.15;85.88;102375.27;1757428;81;21008;-71
2022/01/18 09:50:04;;;;;;;36.25;12.15;;;;;;;-0.12;85.91;102376.47;1750080;81;21026;-71
2022/01/18 09:52:30;;;;;;;52.95;17.85;;;;;;;-0.08;85.88;102378.53;1785552;80;20990;-70
2022/01/18 09:54:56;;;;;;;63.85;22.87;;;;;;;-0.06;85.91;102382.80;1755715;81;21482;-70
2022/01/18 09:57:22;;;;;;;60.30;21.45;;;;;;;-0.03;85.89;102383.14;1754157;81;21541;-70
2022/01/18 09:59:48;;;;;;;48.48;15.32;;;;;;;-0.02;85.92;102392.73;1785094;80;21448;-71
2022/01/18 10:02:14;;;;;;;52.65;18.70;;;;;;;-0.03;85.89;102392.31;1754173;81;20928;-71
2022/01/18 10:04:42;;;;;;;48.83;14.73;;;;;;;0.02;85.89;102394.34;1753120;81;21479;-71
2022/01/18 10:07:09;;;;;;;30.72;10.23;;;;;;;0.06;85.87;102395.09;1761438;81;21045;-71
2022/01/18 10:09:35;;;;;;;40.00;13.50;;;;;;;0.06;85.85;102397.70;1761724;81;21050;-71
2022/01/18 10:12:15;;;;;;;36.03;12.10;;;;;;;0.10;85.85;102400.63;1761591;81;21582;-72
2022/01/18 10:14:45;;;;;;;41.45;12.93;;;;;;;0.12;85.85;102397.48;1761762;81;21046;-71
2022/01/18 10:17:11;;;;;;;;;;;;;;;0.16;85.86;102406.52;1737926;81;21599;-71
2022/01/18 10:19:47;;;;;;;42.58;13.40;;;;;;;0.22;85.84;102412.84;1761978;81;20192;-71
2022/01/18 10:22:16;;;;;;;38.95;11.93;;;;;;;0.22;85.83;102419.85;1736590;81;21482;-71
2022/01/18 10:24:42;;;;;;;39.03;12.43;;;;;;;0.21;85.82;102424.72;1760955;81;21006;-71
2022/01/18 10:27:09;;;;;;;33.30;10.95;;;;;;;0.23;85.79;102432.93;1776096;80;20994;-71
2022/01/18 10:29:44;;;;;;;41.48;13.88;;;;;;;0.19;85.79;102440.50;1756434;80;21059;-70
2022/01/18 10:32:21;;;;;;;46.55;14.20;;;;;;;0.15;85.77;102442.83;1765764;81;21086;-71
2022/01/18 10:37:28;;;;;;;48.92;14.93;;;;;;;0.25;85.77;102431.09;1741949;82;21058;-71
2022/01/18 10:40:01;;;;;;;41.05;12.60;;;;;;;0.29;85.75;102437.95;1741921;82;21069;-71
2022/01/18 10:42:41;;;;;;;50.75;14.85;;;;;;;0.25;85.73;102444.66;1741980;82;21025;-71
2022/01/18 10:45:22;;;;;;;58.75;25.05;;;;;;;0.28;85.72;102450.66;1742714;81;21478;-71
2022/01/18 10:47:57;;;;;;;39.75;11.28;;;;;;;0.40;85.72;102450.23;1754174;81;21154;-72
2022/01/18 10:50:21;;;;;;;51.88;18.15;;;;;;;0.47;85.71;102453.49;1710661;83;21510;-71
2022/01/18 10:52:49;;;;;;;47.93;15.10;;;;;;;0.44;85.69;102445.28;1731272;82;21081;-71
2022/01/18 10:55:18;;;;;;;47.27;16.65;;;;;;;0.44;85.67;102447.91;1730454;82;21065;-70
2022/01/18 10:57:45;;;;;;;36.25;11.88;;;;;;;0.41;85.66;102436.67;1733922;82;21020;-70
2022/01/18 11:00:17;;;;;;;45.70;13.75;;;;;;;0.40;85.63;102435.80;1733373;82;21064;-71
2022/01/18 11:02:50;;;;;;;41.53;13.35;;;;;;;0.44;85.62;102443.97;1738720;81;21685;-70
2022/01/18 11:05:20;;;;;;;33.85;11.30;;;;;;;0.45;85.60;102444.38;1745183;81;21013;-71
2022/01/18 11:07:47;;;;;;;40.25;13.70;;;;;;;0.50;85.61;102450.76;1748187;80;21069;-70
2022/01/18 11:10:16;;;;;;;31.85;11.33;;;;;;;0.55;85.61;102450.59;1754898;80;21099;-71
2022/01/18 11:13:06;;;;;;;40.67;12.05;;;;;;;0.64;85.60;102448.94;1751523;80;21348;-73
2022/01/18 11:15:35;;;;;;;51.77;15.35;;;;;;;0.65;85.56;102440.16;1717333;82;21526;-72
2022/01/18 11:18:05;;;;;;;41.90;16.65;;;;;;;0.65;85.54;102429.66;1751344;80;21374;-72
2022/01/18 11:20:31;;;;;;;35.00;15.75;;;;;;;0.64;85.50;102437.13;1752380;80;21012;-71
2022/01/18 11:22:58;;;;;;;41.63;13.70;;;;;;;0.66;85.49;102434.00;1752482;80;21039;-72
2022/01/18 11:25:24;;;;;;;37.67;11.85;;;;;;;0.66;85.47;102427.44;1760618;80;21656;-72
2022/01/18 11:27:52;;;;;;;42.98;12.95;;;;;;;0.67;85.43;102424.73;1764355;80;21657;-71
2022/01/18 11:30:20;;;;;;;29.85;11.38;;;;;;;0.72;85.41;102420.64;1746762;80;20983;-71
2022/01/18 11:32:47;;;;;;;41.08;15.00;;;;;;;0.78;85.44;102414.70;1758116;80;21034;-71
2022/01/18 11:35:25;;;;;;;41.08;13.30;;;;;;;0.86;85.40;102417.03;1753712;80;21078;-71
2022/01/18 11:38:18;;;;;;;36.00;12.03;;;;;;;0.87;85.36;102413.50;1746484;80;21153;-71
2022/01/18 11:40:48;;;;;;;39.20;12.35;;;;;;;0.79;85.30;102408.99;1758831;80;21053;-70
2022/01/18 11:43:14;;;;;;;40.28;15.95;;;;;;;0.72;85.29;102408.83;1753492;80;22164;-71
2022/01/18 11:45:43;;;;;;;47.48;15.08;;;;;;;0.68;85.25;102408.53;1754449;80;21070;-71
2022/01/18 11:48:14;;;;;;;45.50;14.73;;;;;;;0.71;85.26;102417.61;1746081;80;21525;-71
2022/01/18 11:51:02;;;;;;;38.53;12.37;;;;;;;0.78;85.25;102420.40;1751407;80;21430;-71
2022/01/18 11:53:44;;;;;;;43.33;15.90;;;;;;;0.83;85.22;102419.78;1740068;80;21152;-71
2022/01/18 11:56:14;;;;;;;118.40;41.20;;;;;;;0.80;85.16;102421.22;1751345;80;21494;-71
2022/01/18 11:58:42;;;;;;;41.02;16.45;;;;;;;0.73;85.12;102426.30;1754017;80;21000;-71
2022/01/18 12:01:09;;;;;;;53.48;17.85;;;;;;;0.69;85.11;102431.27;1750370;80;21034;-71
2022/01/18 12:03:43;;;;;;;43.38;16.90;;;;;;;0.68;85.06;102437.41;1752333;80;21098;-71
2022/01/18 12:06:10;;;;;;;37.30;15.18;;;;;;;0.63;85.03;102438.06;1748629;80;21092;-71
2022/01/18 12:08:42;;;;;;;70.30;26.97;;;;;;;0.63;84.99;102438.06;1757713;80;20998;-71
2022/01/18 12:11:26;;;;;;;45.73;15.35;;;;;;;0.71;84.98;102439.92;1748927;80;22305;-71
2022/01/18 12:13:58;;;;;;;42.38;11.35;;;;;;;0.81;84.95;102441.32;1742582;80;21006;-72
2022/01/18 12:16:29;;;;;;;32.50;11.33;;;;;;;0.89;84.92;102441.41;1758610;80;21172;-72
2022/01/18 12:18:59;;;;;;;52.58;18.30;;;;;;;0.89;84.89;102448.43;1761457;80;21075;-72
2022/01/18 12:21:28;;;;;;;66.12;19.95;;;;;;;0.79;84.83;102444.44;1745759;80;21800;-71
2022/01/18 12:23:57;;;;;;;37.45;11.55;;;;;;;0.68;84.80;102438.73;1767804;80;21087;-71